Time;durP1;ratioP1;P1;durP2;ratioP2;P2;SDS_P1;SDS_P2;PMS_P1;PMS_P2;Temp;Humidity;BMP_temperature;BMP_pressure;BME280_temperature;BME280_humidity;BME280_pressure;Samples;Min_cycle;Max_cycle;Signal;HPM_P1;HPM_P2
2022/12/19 00:01:59;;;;;;;25.73;13.30;;;2.10;99.90;;;;;;5093889;28;20067;-88
2022/12/19 00:04:25;;;;;;;27.88;15.38;;;2.10;99.90;;;;;;5093754;28;20459;-88
2022/12/19 00:06:51;;;;;;;30.42;16.60;;;2.10;99.90;;;;;;5112515;28;20035;-88
2022/12/19 00:09:16;;;;;;;24.35;14.18;;;2.10;99.90;;;;;;5099664;27;20143;-88
2022/12/19 00:11:42;;;;;;;25.92;14.88;;;2.10;99.90;;;;;;5114783;27;20568;-88
2022/12/19 00:14:10;;;;;;;27.38;14.40;;;2.10;99.90;;;;;;5106379;28;20484;-88
2022/12/19 00:16:36;;;;;;;30.30;15.10;;;2.10;99.90;;;;;;5112251;27;20513;-88
2022/12/19 00:19:02;;;;;;;28.40;15.07;;;2.20;99.90;;;;;;5113263;27;20047;-88
2022/12/19 00:21:30;;;;;;;28.67;14.73;;;2.20;99.90;;;;;;5104657;27;20035;-88
2022/12/19 00:23:56;;;;;;;30.13;15.57;;;2.20;99.90;;;;;;5097108;27;20039;-88
2022/12/19 00:26:24;;;;;;;28.23;14.07;;;2.20;99.90;;;;;;5113626;27;20045;-88
2022/12/19 00:28:53;;;;;;;28.10;15.13;;;2.20;99.90;;;;;;5122887;27;20517;-88
2022/12/19 00:31:20;;;;;;;27.38;13.85;;;2.30;99.90;;;;;;5113843;27;20039;-88
2022/12/19 00:33:47;;;;;;;26.65;14.85;;;2.30;99.90;;;;;;5105194;28;20488;-88
2022/12/19 00:36:15;;;;;;;27.75;14.52;;;2.20;99.90;;;;;;5131091;27;20451;-88
2022/12/19 00:38:41;;;;;;;30.88;15.15;;;2.30;99.90;;;;;;5113318;27;20053;-88
2022/12/19 00:41:15;;;;;;;30.13;16.17;;;2.30;99.90;;;;;;5116674;27;20419;-88
2022/12/19 00:43:42;;;;;;;31.40;17.08;;;2.30;99.90;;;;;;5130511;27;20039;-88
2022/12/19 00:46:11;;;;;;;29.35;15.40;;;2.30;99.90;;;;;;5114538;27;20478;-88
2022/12/19 00:48:37;;;;;;;30.30;14.93;;;2.30;99.90;;;;;;5093499;28;20050;-88
2022/12/19 00:51:05;;;;;;;29.60;15.82;;;2.30;99.90;;;;;;5093089;28;20047;-88
2022/12/19 00:53:31;;;;;;;31.38;15.77;;;2.30;99.90;;;;;;5092337;28;20040;-88
2022/12/19 00:56:00;;;;;;;30.45;14.98;;;2.30;99.90;;;;;;5093089;28;20046;-88
2022/12/19 00:58:26;;;;;;;27.20;15.15;;;2.30;99.90;;;;;;5099268;27;20117;-87
2022/12/19 01:00:51;;;;;;;30.60;17.15;;;2.30;99.90;;;;;;5094758;28;20059;-88
2022/12/19 01:03:17;;;;;;;28.88;16.33;;;2.30;99.90;;;;;;5110076;28;20036;-88
2022/12/19 01:05:42;;;;;;;29.83;14.82;;;2.30;99.90;;;;;;5092423;28;20039;-88
2022/12/19 01:08:08;;;;;;;31.80;18.27;;;2.30;99.90;;;;;;5092858;28;20051;-88
2022/12/19 01:10:33;;;;;;;26.52;13.52;;;2.40;99.90;;;;;;5101072;27;20152;-87
2022/12/19 01:12:59;;;;;;;28.00;15.07;;;2.40;99.90;;;;;;5093045;28;20048;-88
2022/12/19 01:15:25;;;;;;;27.90;15.02;;;2.40;99.90;;;;;;5094720;27;20081;-87
2022/12/19 01:17:50;;;;;;;27.55;14.80;;;2.40;99.90;;;;;;5099294;28;20040;-87
2022/12/19 01:20:19;;;;;;;29.15;14.77;;;2.40;99.90;;;;;;5093135;28;20063;-87
2022/12/19 01:22:46;;;;;;;29.55;16.48;;;2.40;99.90;;;;;;5097963;27;20039;-87
2022/12/19 01:25:12;;;;;;;31.27;15.93;;;2.40;99.90;;;;;;5113055;27;20100;-88
2022/12/19 01:27:38;;;;;;;27.83;15.07;;;2.40;99.90;;;;;;5131166;27;20046;-88
2022/12/19 01:30:05;;;;;;;29.50;14.75;;;2.50;99.90;;;;;;5103182;27;20509;-87
2022/12/19 01:32:33;;;;;;;28.35;14.88;;;2.50;99.90;;;;;;5112017;27;20397;-87
2022/12/19 01:34:59;;;;;;;31.50;15.00;;;2.50;99.90;;;;;;5113168;28;20043;-87
2022/12/19 01:37:25;;;;;;;29.48;15.70;;;2.50;99.90;;;;;;5109455;28;20040;-87
2022/12/19 01:39:50;;;;;;;29.42;14.77;;;2.50;99.90;;;;;;5104058;28;20035;-88
2022/12/19 01:42:19;;;;;;;29.10;16.27;;;2.50;99.90;;;;;;5112802;28;20054;-87
2022/12/19 01:45:20;;;;;;;30.52;15.52;;;2.60;99.90;;;;;;5113010;28;20488;-87
2022/12/19 01:48:15;;;;;;;30.60;15.43;;;2.60;99.90;;;;;;5048989;28;20055;-87
2022/12/19 01:50:48;;;;;;;28.33;15.05;;;2.60;99.90;;;;;;5105677;28;20047;-88
2022/12/19 01:53:13;;;;;;;31.60;15.23;;;2.60;99.90;;;;;;5098567;28;20050;-87
2022/12/19 01:55:41;;;;;;;27.95;14.80;;;2.60;99.90;;;;;;5091579;28;20442;-88
2022/12/19 01:58:08;;;;;;;29.20;15.30;;;2.60;99.90;;;;;;5098931;28;20055;-87
2022/12/19 02:00:34;;;;;;;28.88;13.82;;;2.60;99.90;;;;;;5093100;28;20114;-87
2022/12/19 02:03:07;;;;;;;31.30;15.63;;;2.60;99.90;;;;;;5091993;28;20446;-87
2022/12/19 02:05:33;;;;;;;27.00;14.13;;;2.70;99.90;;;;;;5099970;28;20043;-88
2022/12/19 02:08:00;;;;;;;29.15;15.52;;;2.70;99.90;;;;;;5091802;28;20073;-87
2022/12/19 02:10:26;;;;;;;28.45;14.27;;;2.70;99.90;;;;;;5091234;28;20085;-88
2022/12/19 02:12:52;;;;;;;30.00;16.10;;;2.70;99.90;;;;;;5094768;28;20678;-88
2022/12/19 02:15:18;;;;;;;25.63;14.23;;;2.70;99.90;;;;;;5111606;28;20039;-88
2022/12/19 02:17:53;;;;;;;29.85;15.65;;;2.70;99.90;;;;;;5108817;28;20094;-88
2022/12/19 02:20:51;;;;;;;30.60;15.57;;;2.80;99.90;;;;;;5091490;28;20071;-87
2022/12/19 02:23:57;;;;;;;30.98;14.35;;;2.80;99.90;;;;;;5091770;28;20044;-88
2022/12/19 02:26:45;;;;;;;31.70;15.00;;;2.80;99.90;;;;;;5110373;28;20566;-88
2022/12/19 02:29:22;;;;;;;30.67;16.05;;;2.80;99.90;;;;;;5091889;28;20123;-87
2022/12/19 02:32:02;;;;;;;27.17;15.40;;;2.80;99.90;;;;;;5092222;28;20043;-88
2022/12/19 02:34:33;;;;;;;29.73;15.55;;;2.80;99.90;;;;;;5111667;28;20449;-87
2022/12/19 02:37:10;;;;;;;31.85;16.30;;;2.80;99.90;;;;;;5112059;28;20039;-87
2022/12/19 02:39:59;;;;;;;28.65;15.05;;;2.80;99.90;;;;;;5112841;27;20043;-87
2022/12/19 02:42:30;;;;;;;27.88;14.45;;;2.80;99.90;;;;;;5134009;27;20066;-87
2022/12/19 02:44:59;;;;;;;32.88;16.15;;;2.80;99.90;;;;;;5116692;27;20114;-88
2022/12/19 02:47:25;;;;;;;28.90;14.75;;;2.80;99.90;;;;;;5113548;27;20040;-88
2022/12/19 02:49:50;;;;;;;28.85;15.52;;;2.70;99.90;;;;;;5114004;28;20040;-88
2022/12/19 02:52:19;;;;;;;30.75;16.10;;;2.80;99.90;;;;;;5095306;28;20083;-88
2022/12/19 02:54:51;;;;;;;31.30;16.30;;;2.80;99.90;;;;;;5102933;27;20054;-88
2022/12/19 02:57:24;;;;;;;32.63;17.33;;;2.80;99.90;;;;;;5115818;27;20039;-88
2022/12/19 03:00:04;;;;;;;32.28;16.25;;;2.80;99.90;;;;;;5115628;27;20404;-88
2022/12/19 03:02:44;;;;;;;32.05;15.63;;;2.80;99.90;;;;;;5097875;28;20050;-88
2022/12/19 03:05:28;;;;;;;32.03;15.90;;;2.80;99.90;;;;;;5113739;28;20039;-87
2022/12/19 03:08:07;;;;;;;26.42;14.18;;;2.80;99.90;;;;;;5121846;27;20406;-87
2022/12/19 03:10:58;;;;;;;28.85;14.88;;;2.90;99.90;;;;;;5095417;28;20044;-87
2022/12/19 03:13:38;;;;;;;29.13;15.07;;;2.90;99.90;;;;;;5090840;28;20083;-88
2022/12/19 03:16:06;;;;;;;30.15;14.70;;;2.90;99.90;;;;;;5095059;28;20040;-88
2022/12/19 03:18:32;;;;;;;34.33;16.85;;;2.90;99.90;;;;;;5102713;28;20067;-87
2022/12/19 03:21:12;;;;;;;32.35;16.60;;;2.90;99.90;;;;;;5113418;28;20455;-88
2022/12/19 03:23:38;;;;;;;30.17;15.38;;;2.90;99.90;;;;;;5094650;28;20485;-88
2022/12/19 03:26:08;;;;;;;27.42;15.52;;;3.00;99.90;;;;;;5112723;27;20039;-88
2022/12/19 03:28:50;;;;;;;29.90;16.20;;;3.00;99.90;;;;;;5115155;27;20053;-88
2022/12/19 03:31:18;;;;;;;27.70;14.48;;;3.00;99.90;;;;;;5114853;27;20118;-88
2022/12/19 03:33:46;;;;;;;31.52;15.23;;;3.00;99.90;;;;;;5114626;27;20110;-88
2022/12/19 03:36:16;;;;;;;34.10;15.75;;;3.00;99.90;;;;;;5114753;27;20036;-88
2022/12/19 03:38:45;;;;;;;34.40;17.52;;;3.00;99.90;;;;;;5114438;27;20051;-88
2022/12/19 03:41:13;;;;;;;34.55;16.73;;;3.10;99.90;;;;;;5115044;27;20046;-88
2022/12/19 03:43:40;;;;;;;27.00;15.20;;;3.10;99.90;;;;;;5114620;27;20047;-88
2022/12/19 03:46:10;;;;;;;27.35;14.30;;;3.20;99.90;;;;;;5115040;27;20096;-88
2022/12/19 03:48:41;;;;;;;30.50;14.70;;;3.10;99.90;;;;;;5105323;27;20405;-88
2022/12/19 03:51:58;;;;;;;31.10;15.85;;;3.20;99.90;;;;;;5114821;28;20035;-89
2022/12/19 03:54:39;;;;;;;30.13;16.30;;;3.20;99.90;;;;;;5055220;28;20501;-88
2022/12/19 03:57:21;;;;;;;30.63;16.25;;;3.30;99.90;;;;;;5114600;27;20519;-87
2022/12/19 04:00:04;;;;;;;31.77;15.57;;;3.30;99.90;;;;;;5111469;27;20059;-87
2022/12/19 04:02:35;;;;;;;28.95;15.02;;;3.30;99.90;;;;;;5094033;28;20048;-88
2022/12/19 04:05:11;;;;;;;29.40;14.35;;;3.30;99.90;;;;;;5121477;27;20043;-88
2022/12/19 04:07:38;;;;;;;29.88;14.52;;;3.40;99.90;;;;;;5114630;27;20448;-88
2022/12/19 04:10:11;;;;;;;29.45;15.23;;;3.40;99.90;;;;;;5114990;27;20504;-88
2022/12/19 04:12:42;;;;;;;31.20;16.10;;;3.50;99.90;;;;;;5110857;28;20036;-89
2022/12/19 04:15:11;;;;;;;33.85;16.88;;;3.50;99.90;;;;;;5094222;28;20055;-88
2022/12/19 04:17:43;;;;;;;31.30;15.57;;;3.50;99.90;;;;;;5112848;27;20062;-88
2022/12/19 04:20:18;;;;;;;28.50;15.90;;;3.60;99.90;;;;;;5100597;28;20043;-88
2022/12/19 04:22:55;;;;;;;32.83;16.45;;;3.60;99.90;;;;;;5111713;27;20036;-89
2022/12/19 04:25:26;;;;;;;32.95;16.77;;;3.60;99.90;;;;;;5100385;28;20043;-88
2022/12/19 04:28:11;;;;;;;31.60;17.17;;;3.60;99.90;;;;;;5112019;28;20089;-87
2022/12/19 04:30:38;;;;;;;33.63;18.05;;;3.60;99.90;;;;;;5125412;27;20118;-88
2022/12/19 04:33:04;;;;;;;32.03;16.30;;;3.70;99.90;;;;;;5093562;28;20040;-88
2022/12/19 04:35:30;;;;;;;29.85;16.27;;;3.70;99.90;;;;;;5111594;28;20434;-88
2022/12/19 04:37:56;;;;;;;29.70;16.60;;;3.70;99.90;;;;;;5093862;28;20035;-88
2022/12/19 04:40:21;;;;;;;34.60;16.00;;;3.70;99.90;;;;;;5093401;28;20517;-88
2022/12/19 04:42:47;;;;;;;27.65;14.85;;;3.70;99.90;;;;;;5112530;27;20043;-88
2022/12/19 04:45:15;;;;;;;28.92;16.75;;;3.70;99.90;;;;;;5114284;27;20039;-89
2022/12/19 04:47:41;;;;;;;28.42;15.82;;;3.70;99.90;;;;;;5131767;27;20039;-88
2022/12/19 04:50:07;;;;;;;32.58;16.70;;;3.70;99.90;;;;;;5114198;27;20046;-88
2022/12/19 04:52:33;;;;;;;30.35;16.98;;;3.80;99.90;;;;;;5109538;28;20471;-87
2022/12/19 04:54:58;;;;;;;30.67;16.35;;;3.80;99.90;;;;;;5093277;28;20036;-88
2022/12/19 04:57:24;;;;;;;31.83;15.57;;;3.80;99.90;;;;;;5092858;28;20083;-88
2022/12/19 04:59:50;;;;;;;30.38;16.33;;;3.80;99.90;;;;;;5105053;27;20047;-89
2022/12/19 05:02:15;;;;;;;30.33;16.25;;;3.90;99.90;;;;;;5112982;27;20042;-88
2022/12/19 05:04:41;;;;;;;34.42;17.83;;;3.90;99.90;;;;;;5110770;27;20072;-89
2022/12/19 05:07:06;;;;;;;29.85;16.60;;;3.90;99.90;;;;;;5107249;27;20426;-88
2022/12/19 05:09:32;;;;;;;28.65;15.27;;;4.00;99.90;;;;;;5113659;27;20043;-88
2022/12/19 05:11:58;;;;;;;31.45;15.18;;;4.00;99.90;;;;;;5101974;28;20059;-89
2022/12/19 05:14:24;;;;;;;29.90;16.88;;;4.00;99.90;;;;;;5093068;28;20128;-88
2022/12/19 05:16:49;;;;;;;31.30;16.75;;;4.00;99.90;;;;;;5092709;28;20047;-88
2022/12/19 05:19:15;;;;;;;28.98;15.95;;;4.00;99.90;;;;;;5092336;28;20055;-88
2022/12/19 05:21:40;;;;;;;33.88;15.50;;;4.00;99.90;;;;;;5092847;28;20054;-88
2022/12/19 05:24:06;;;;;;;31.17;16.00;;;4.10;99.90;;;;;;5093825;27;20043;-88
2022/12/19 05:26:32;;;;;;;33.75;16.80;;;4.10;99.90;;;;;;5113214;27;20131;-88
2022/12/19 05:28:58;;;;;;;31.58;16.92;;;4.20;99.90;;;;;;5113129;27;20408;-88
2022/12/19 05:31:23;;;;;;;30.42;15.98;;;4.20;99.90;;;;;;5109775;28;20040;-88
2022/12/19 05:33:49;;;;;;;30.10;17.25;;;4.20;99.90;;;;;;5110981;28;20028;-88
2022/12/19 05:36:16;;;;;;;29.58;14.88;;;4.20;99.90;;;;;;5092665;28;20869;-88
2022/12/19 05:38:42;;;;;;;31.45;17.77;;;4.30;99.90;;;;;;5106651;28;20454;-88
2022/12/19 05:41:13;;;;;;;30.45;17.13;;;4.30;99.90;;;;;;5111689;28;20039;-88
2022/12/19 05:43:39;;;;;;;29.50;15.70;;;4.30;99.90;;;;;;5110341;28;20659;-88
2022/12/19 05:46:05;;;;;;;32.40;17.00;;;4.40;99.90;;;;;;5092718;28;20118;-88
2022/12/19 05:48:31;;;;;;;28.98;15.82;;;4.40;99.90;;;;;;5110155;28;20055;-89
2022/12/19 05:50:57;;;;;;;25.77;15.48;;;4.40;99.90;;;;;;5113602;28;20031;-88
2022/12/19 05:53:22;;;;;;;29.63;17.08;;;4.50;99.90;;;;;;5112313;28;20108;-88
2022/12/19 05:55:49;;;;;;;29.00;15.75;;;4.50;99.90;;;;;;5113036;28;20034;-88
2022/12/19 05:58:15;;;;;;;29.80;15.35;;;4.50;99.90;;;;;;5131129;28;20094;-88
2022/12/19 06:00:41;;;;;;;28.10;15.23;;;4.50;99.90;;;;;;5093278;28;20075;-89
2022/12/19 06:03:07;;;;;;;27.33;15.52;;;4.60;99.90;;;;;;5110201;28;20039;-88
2022/12/19 06:05:36;;;;;;;24.70;15.18;;;4.60;99.90;;;;;;5092111;28;20043;-88
2022/12/19 06:08:01;;;;;;;27.23;14.43;;;4.60;99.90;;;;;;5092226;28;20629;-88
2022/12/19 06:10:27;;;;;;;26.55;14.35;;;4.60;99.90;;;;;;5092861;28;20040;-88
2022/12/19 06:12:52;;;;;;;23.48;14.43;;;4.70;99.90;;;;;;5101768;28;20066;-88
2022/12/19 06:15:18;;;;;;;28.30;15.05;;;4.70;99.90;;;;;;5133083;27;20074;-88
2022/12/19 06:17:43;;;;;;;27.13;15.60;;;4.70;99.90;;;;;;5116021;27;20492;-89
2022/12/19 06:20:09;;;;;;;29.27;13.20;;;4.80;99.90;;;;;;5134970;27;20045;-88
2022/12/19 06:22:35;;;;;;;26.95;15.77;;;4.80;99.90;;;;;;5116190;27;20576;-89
2022/12/19 06:25:01;;;;;;;29.00;14.68;;;4.80;99.90;;;;;;5134153;27;20046;-88
2022/12/19 06:27:26;;;;;;;24.35;14.00;;;4.90;99.90;;;;;;5135025;27;20717;-89
2022/12/19 06:29:52;;;;;;;23.73;14.13;;;4.90;99.90;;;;;;5106997;27;20071;-88
2022/12/19 06:32:17;;;;;;;25.70;13.40;;;4.90;99.90;;;;;;5116177;27;20039;-88
2022/12/19 06:34:43;;;;;;;22.45;13.75;;;4.90;99.90;;;;;;5122371;27;20055;-88
2022/12/19 06:37:08;;;;;;;26.80;13.85;;;5.00;99.90;;;;;;5144706;27;20487;-88
2022/12/19 06:39:34;;;;;;;22.95;13.18;;;5.00;99.90;;;;;;5125674;27;20154;-89
2022/12/19 06:44:44;;;;;;;24.30;13.55;;;5.10;99.90;;;;;;5121254;27;20043;-89
2022/12/19 06:47:09;;;;;;;26.48;14.73;;;5.10;99.90;;;;;;5117021;27;20073;-89
2022/12/19 06:49:35;;;;;;;25.55;14.38;;;5.10;99.90;;;;;;5118395;27;20082;-90
2022/12/19 06:52:00;;;;;;;22.45;13.05;;;5.10;99.90;;;;;;5124405;27;20064;-89
2022/12/19 06:54:27;;;;;;;22.52;12.98;;;5.10;99.90;;;;;;5115658;27;20044;-89
2022/12/19 06:56:52;;;;;;;24.50;14.95;;;5.10;99.90;;;;;;5115457;27;20035;-89
2022/12/19 06:59:18;;;;;;;23.73;12.65;;;5.10;99.90;;;;;;5103959;28;20035;-89
2022/12/19 07:01:57;;;;;;;21.80;12.85;;;5.20;99.90;;;;;;5095757;28;20603;-91
2022/12/19 07:04:30;;;;;;;22.50;13.40;;;5.20;99.90;;;;;;5106304;27;20055;-89
2022/12/19 07:06:56;;;;;;;25.10;12.65;;;5.20;99.90;;;;;;5114390;27;20042;-89
2022/12/19 07:09:22;;;;;;;20.98;11.88;;;5.20;99.90;;;;;;5114999;27;20060;-89
2022/12/19 07:11:48;;;;;;;21.75;12.57;;;5.20;99.90;;;;;;5097947;28;20044;-89
2022/12/19 07:14:13;;;;;;;23.77;13.18;;;5.30;99.90;;;;;;5094079;28;20040;-89
2022/12/19 07:16:40;;;;;;;20.08;11.93;;;5.30;99.90;;;;;;5107222;27;20515;-89
2022/12/19 07:19:06;;;;;;;24.25;12.18;;;5.30;99.90;;;;;;5114706;27;20047;-89
2022/12/19 07:21:32;;;;;;;21.75;12.60;;;5.30;99.90;;;;;;5114534;27;20120;-89
2022/12/19 07:23:58;;;;;;;18.40;11.57;;;5.40;99.90;;;;;;5096507;28;20122;-89
2022/12/19 07:26:24;;;;;;;20.58;12.57;;;5.40;99.90;;;;;;5111354;28;20681;-89
2022/12/19 07:28:50;;;;;;;19.60;12.15;;;5.40;99.90;;;;;;5093577;27;20118;-89
2022/12/19 07:31:15;;;;;;;18.48;10.65;;;5.40;99.90;;;;;;5125717;27;20042;-89
2022/12/19 07:33:41;;;;;;;21.33;12.13;;;5.50;99.90;;;;;;5114023;27;20039;-89
2022/12/19 07:36:07;;;;;;;20.65;12.02;;;5.50;99.90;;;;;;5114254;27;20081;-89
2022/12/19 07:38:32;;;;;;;18.70;11.45;;;5.50;99.90;;;;;;5113992;27;20801;-89
2022/12/19 07:41:01;;;;;;;21.23;11.48;;;5.50;99.90;;;;;;5114260;27;20049;-89
2022/12/19 07:43:26;;;;;;;19.70;11.05;;;5.50;99.90;;;;;;5114030;27;20035;-89
2022/12/19 07:45:55;;;;;;;19.38;11.35;;;5.50;99.90;;;;;;5115119;27;20108;-89
2022/12/19 07:48:21;;;;;;;17.65;10.60;;;5.60;99.90;;;;;;5113997;27;20078;-89
2022/12/19 07:50:47;;;;;;;19.42;11.00;;;5.60;99.90;;;;;;5089114;27;20070;-89
2022/12/19 07:53:14;;;;;;;20.05;10.98;;;5.60;99.90;;;;;;5114111;27;20100;-89
2022/12/19 07:55:40;;;;;;;16.55;10.23;;;5.60;99.90;;;;;;5108077;28;20119;-89
2022/12/19 07:58:06;;;;;;;19.35;11.25;;;5.60;99.90;;;;;;5092484;28;20122;-89
2022/12/19 08:00:32;;;;;;;17.83;8.90;;;5.60;99.90;;;;;;5093382;28;20040;-89
2022/12/19 08:03:00;;;;;;;16.33;10.75;;;5.70;99.90;;;;;;5104654;27;20099;-90
2022/12/19 08:05:26;;;;;;;19.33;11.73;;;5.70;99.90;;;;;;5114951;27;20393;-89
2022/12/19 08:07:51;;;;;;;19.80;11.50;;;5.70;99.90;;;;;;5113835;27;20072;-89
2022/12/19 08:10:18;;;;;;;19.08;10.48;;;5.80;99.90;;;;;;5132273;27;20126;-89
2022/12/19 08:12:43;;;;;;;19.60;10.75;;;5.80;99.90;;;;;;5113398;27;20054;-90
2022/12/19 08:15:10;;;;;;;16.83;9.75;;;5.80;99.90;;;;;;5131203;27;20035;-89
2022/12/19 08:17:35;;;;;;;18.75;10.45;;;5.90;99.90;;;;;;5113303;27;20035;-89
2022/12/19 08:20:01;;;;;;;16.27;9.35;;;5.80;99.90;;;;;;5113305;27;20664;-89
2022/12/19 08:22:28;;;;;;;20.02;11.18;;;5.90;99.90;;;;;;5131592;27;20035;-89
2022/12/19 08:24:54;;;;;;;21.30;11.13;;;5.90;99.90;;;;;;5114330;27;20504;-90
2022/12/19 08:27:20;;;;;;;16.40;10.10;;;5.90;99.90;;;;;;5114125;27;20107;-89
2022/12/19 08:29:46;;;;;;;17.60;10.40;;;6.00;99.90;;;;;;5103929;27;20077;-89
2022/12/19 08:32:13;;;;;;;15.88;9.88;;;6.00;99.90;;;;;;5113720;27;20035;-89
2022/12/19 08:34:39;;;;;;;17.38;10.80;;;6.10;99.90;;;;;;5112903;27;20051;-90
2022/12/19 08:37:04;;;;;;;19.27;11.52;;;6.10;99.90;;;;;;5108946;28;20118;-89
2022/12/19 08:39:30;;;;;;;19.20;10.25;;;6.10;99.90;;;;;;5075833;28;20180;-91
2022/12/19 08:41:56;;;;;;;18.85;11.48;;;6.10;99.90;;;;;;5108413;27;20043;-89
2022/12/19 08:44:21;;;;;;;19.02;10.65;;;6.20;99.90;;;;;;5092179;28;20169;-88
2022/12/19 08:46:47;;;;;;;17.83;9.45;;;6.20;99.90;;;;;;5128341;27;20042;-90
2022/12/19 08:49:12;;;;;;;21.75;11.55;;;6.20;99.90;;;;;;5111555;27;20039;-90
2022/12/19 08:51:38;;;;;;;20.45;10.55;;;6.20;99.90;;;;;;5085172;27;20092;-89
2022/12/19 08:54:04;;;;;;;20.02;10.52;;;6.20;99.90;;;;;;5115785;27;20043;-89
2022/12/19 08:56:29;;;;;;;16.52;9.73;;;6.30;99.90;;;;;;5093255;28;20032;-90
2022/12/19 08:58:55;;;;;;;18.48;10.30;;;6.30;99.90;;;;;;5091551;28;20566;-90
2022/12/19 09:01:22;;;;;;;19.40;10.45;;;6.30;99.90;;;;;;5091473;28;20109;-90
2022/12/19 09:03:48;;;;;;;20.30;12.00;;;6.40;99.90;;;;;;5092318;28;20531;-90
2022/12/19 09:06:15;;;;;;;19.40;10.57;;;6.40;99.90;;;;;;5098570;27;20031;-90
2022/12/19 09:08:42;;;;;;;19.73;11.07;;;6.50;99.90;;;;;;5076641;28;20055;-90
2022/12/19 09:11:16;;;;;;;18.27;9.65;;;6.50;99.90;;;;;;5092721;28;20074;-89
2022/12/19 09:13:42;;;;;;;17.88;9.98;;;6.60;99.90;;;;;;5104075;27;20125;-89
2022/12/19 09:16:14;;;;;;;20.85;13.18;;;6.60;99.90;;;;;;5112464;27;20118;-88
2022/12/19 09:18:41;;;;;;;19.52;10.73;;;6.60;99.90;;;;;;5113652;27;20039;-90
2022/12/19 09:21:07;;;;;;;18.60;10.88;;;6.70;99.90;;;;;;5121572;27;20039;-90
2022/12/19 09:23:33;;;;;;;22.05;11.95;;;6.70;99.90;;;;;;5122315;27;20495;-89
2022/12/19 09:26:05;;;;;;;18.85;11.93;;;6.80;99.90;;;;;;5122821;27;20038;-90
2022/12/19 09:28:30;;;;;;;19.10;10.75;;;6.80;99.90;;;;;;5123584;27;20484;-91
2022/12/19 09:31:06;;;;;;;21.45;11.80;;;6.80;99.90;;;;;;5119900;27;20035;-90
2022/12/19 09:33:34;;;;;;;18.50;11.18;;;6.80;99.90;;;;;;5140379;27;20035;-90
2022/12/19 09:36:00;;;;;;;18.13;9.88;;;6.80;99.90;;;;;;5119537;27;20027;-90
2022/12/19 09:38:28;;;;;;;20.65;11.25;;;6.90;99.90;;;;;;5117897;27;20048;-90
2022/12/19 09:40:57;;;;;;;19.50;11.77;;;6.90;99.90;;;;;;5117431;27;20045;-90
2022/12/19 09:43:47;;;;;;;20.25;12.05;;;6.90;99.90;;;;;;5119544;27;20077;-90
2022/12/19 09:46:19;;;;;;;20.13;10.23;;;7.00;99.90;;;;;;5141383;27;20039;-90
2022/12/19 09:48:46;;;;;;;20.70;11.73;;;7.00;99.90;;;;;;5122069;27;20043;-90
2022/12/19 09:51:36;;;;;;;18.00;10.32;;;7.00;99.90;;;;;;5124963;27;20043;-90
2022/12/19 09:54:02;;;;;;;17.80;11.23;;;7.00;99.90;;;;;;5125753;27;20685;-90
2022/12/19 09:56:35;;;;;;;20.85;13.02;;;7.00;99.90;;;;;;5095535;28;20130;-90
2022/12/19 09:59:11;;;;;;;14.68;9.30;;;7.00;99.90;;;;;;5094201;28;20047;-89
2022/12/19 10:01:57;;;;;;;18.23;10.18;;;7.10;99.90;;;;;;5102667;28;20523;-90
2022/12/19 10:04:26;;;;;;;16.67;8.85;;;7.10;99.90;;;;;;5077654;28;20059;-91
2022/12/19 10:06:52;;;;;;;16.65;9.63;;;7.10;99.90;;;;;;5096656;28;20039;-90
2022/12/19 10:09:21;;;;;;;18.00;10.32;;;7.20;99.90;;;;;;5096302;28;20755;-90
2022/12/19 10:11:56;;;;;;;15.35;9.32;;;7.20;99.90;;;;;;5095958;28;20047;-90
2022/12/19 10:14:35;;;;;;;17.25;10.40;;;7.20;99.90;;;;;;5096448;28;20096;-90
2022/12/19 10:17:21;;;;;;;15.32;9.20;;;7.20;99.90;;;;;;5095615;28;20035;-89
2022/12/19 10:20:12;;;;;;;14.20;8.63;;;7.30;99.90;;;;;;5113701;27;20039;-90
2022/12/19 10:23:13;;;;;;;13.50;8.30;;;7.30;99.90;;;;;;5129432;27;20399;-89
2022/12/19 10:25:58;;;;;;;14.95;8.65;;;7.30;99.90;;;;;;5096777;28;20511;-90
2022/12/19 10:29:00;;;;;;;15.98;8.88;;;7.40;99.90;;;;;;5098420;27;20048;-89
2022/12/19 10:31:38;;;;;;;17.27;8.95;;;7.40;99.90;;;;;;5134845;27;20409;-90
2022/12/19 10:34:23;;;;;;;16.17;8.80;;;7.40;99.90;;;;;;5109400;28;20118;-89
2022/12/19 10:36:56;;;;;;;14.52;7.07;;;7.40;99.90;;;;;;5095540;28;20054;-90
2022/12/19 10:39:27;;;;;;;15.50;9.15;;;7.50;99.90;;;;;;5112816;27;20043;-90
2022/12/19 10:42:07;;;;;;;16.60;8.68;;;7.50;99.90;;;;;;5104454;27;20091;-89
2022/12/19 10:44:38;;;;;;;15.50;8.02;;;7.50;99.90;;;;;;5094013;28;20043;-89
2022/12/19 10:47:04;;;;;;;14.82;8.48;;;7.50;99.90;;;;;;5105719;27;20055;-90
2022/12/19 10:49:29;;;;;;;15.30;8.88;;;7.60;99.90;;;;;;5132293;27;20042;-90
2022/12/19 10:51:55;;;;;;;15.38;8.40;;;7.60;99.90;;;;;;5113894;27;20043;-90
2022/12/19 10:54:36;;;;;;;18.67;9.63;;;7.60;99.90;;;;;;5095874;27;20046;-89
2022/12/19 10:57:20;;;;;;;18.48;9.95;;;7.60;99.90;;;;;;5132514;27;20096;-90
2022/12/19 11:00:01;;;;;;;16.77;8.35;;;7.60;99.90;;;;;;5095998;28;20079;-90
2022/12/19 11:03:06;;;;;;;15.10;8.52;;;7.70;99.90;;;;;;5111671;28;20043;-90
2022/12/19 11:05:47;;;;;;;13.05;7.18;;;7.70;99.90;;;;;;5111255;28;20043;-90
2022/12/19 11:08:22;;;;;;;12.77;7.80;;;7.70;99.90;;;;;;5109337;27;20043;-90
2022/12/19 11:11:03;;;;;;;13.88;7.45;;;7.70;99.90;;;;;;5115154;27;20423;-90
2022/12/19 11:13:38;;;;;;;13.93;7.45;;;7.70;99.90;;;;;;5133636;27;20039;-90
2022/12/19 11:16:05;;;;;;;15.88;8.52;;;7.70;99.90;;;;;;5094448;28;20066;-90
2022/12/19 11:18:37;;;;;;;14.98;8.43;;;7.70;99.90;;;;;;5094827;28;20047;-89
2022/12/19 11:21:04;;;;;;;13.57;8.23;;;7.70;99.90;;;;;;5102290;28;20044;-90
2022/12/19 11:23:32;;;;;;;14.55;8.35;;;7.80;99.90;;;;;;5094347;28;20062;-90
2022/12/19 11:26:03;;;;;;;15.85;8.43;;;7.80;99.90;;;;;;5094995;28;20044;-90
2022/12/19 11:28:35;;;;;;;15.20;8.13;;;7.80;99.90;;;;;;5094844;28;20039;-90
2022/12/19 11:31:03;;;;;;;14.70;8.13;;;7.80;99.90;;;;;;5102159;28;20042;-90
2022/12/19 11:33:29;;;;;;;14.50;8.25;;;7.80;99.90;;;;;;5094471;28;20120;-91
2022/12/19 11:35:57;;;;;;;14.57;7.88;;;7.80;99.90;;;;;;5104598;27;20396;-90
2022/12/19 11:38:47;;;;;;;12.15;7.35;;;7.80;99.90;;;;;;5114591;27;20488;-90
2022/12/19 11:41:22;;;;;;;13.50;8.07;;;7.90;99.90;;;;;;5114682;27;20080;-91
2022/12/19 11:44:29;;;;;;;16.45;8.90;;;7.90;99.90;;;;;;5104868;27;20043;-90
2022/12/19 11:47:02;;;;;;;14.50;8.23;;;7.80;99.90;;;;;;5133356;27;20036;-91
2022/12/19 11:49:56;;;;;;;14.95;8.02;;;7.90;99.90;;;;;;5125061;27;20044;-90
2022/12/19 11:52:41;;;;;;;16.55;8.68;;;7.90;99.90;;;;;;5089183;28;20043;-90
2022/12/19 11:55:31;;;;;;;13.38;7.60;;;7.90;99.90;;;;;;5120474;27;20091;-90
2022/12/19 11:57:57;;;;;;;13.82;7.88;;;7.90;99.90;;;;;;5093819;28;20044;-89
2022/12/19 12:00:23;;;;;;;12.65;7.35;;;7.90;99.90;;;;;;5104989;27;20104;-89
2022/12/19 12:03:01;;;;;;;13.35;7.57;;;8.00;99.90;;;;;;5114099;27;20045;-90
2022/12/19 12:05:42;;;;;;;14.73;7.45;;;8.00;99.90;;;;;;5106262;28;20493;-90
2022/12/19 12:08:41;;;;;;;14.93;8.50;;;8.10;99.90;;;;;;5094396;28;20056;-90
2022/12/19 12:11:31;;;;;;;12.32;6.97;;;8.10;99.90;;;;;;5097387;27;20596;-89
2022/12/19 12:14:05;;;;;;;13.60;8.25;;;8.10;99.90;;;;;;5112426;28;20077;-90
2022/12/19 12:16:59;;;;;;;18.20;8.25;;;8.10;99.90;;;;;;5093267;28;20059;-89
2022/12/19 12:19:49;;;;;;;13.02;7.30;;;8.20;99.90;;;;;;5118860;27;20086;-90
2022/12/19 12:22:53;;;;;;;15.52;8.27;;;8.20;99.90;;;;;;5120909;27;20454;-90
2022/12/19 12:25:45;;;;;;;12.57;6.85;;;8.20;99.90;;;;;;5122337;27;20046;-89
2022/12/19 12:28:47;;;;;;;14.47;7.33;;;8.30;99.90;;;;;;5135927;27;20031;-90
2022/12/19 12:31:26;;;;;;;12.65;7.60;;;8.30;99.90;;;;;;5120828;27;20347;-89
2022/12/19 12:34:16;;;;;;;12.02;6.43;;;8.30;99.90;;;;;;5113145;27;20044;-89
2022/12/19 12:37:06;;;;;;;11.18;6.95;;;8.30;99.90;;;;;;5121804;27;20412;-90
2022/12/19 12:39:38;;;;;;;12.05;7.05;;;8.40;99.90;;;;;;5111100;27;20097;-89
2022/12/19 12:42:19;;;;;;;13.23;6.15;;;8.40;99.90;;;;;;5111068;27;20049;-89
2022/12/19 12:44:45;;;;;;;14.82;7.65;;;8.40;99.90;;;;;;5144900;27;20080;-90
2022/12/19 12:47:24;;;;;;;12.77;7.30;;;8.40;99.90;;;;;;5122420;27;20454;-90
2022/12/19 12:50:04;;;;;;;13.60;7.60;;;8.40;99.90;;;;;;5132425;27;20078;-90
2022/12/19 12:52:46;;;;;;;12.30;6.47;;;8.40;99.90;;;;;;5121277;27;20039;-89
2022/12/19 12:55:24;;;;;;;12.95;6.35;;;8.40;99.90;;;;;;5112974;27;20488;-89
2022/12/19 12:57:50;;;;;;;13.13;6.72;;;8.40;99.90;;;;;;5105122;28;20054;-89
2022/12/19 13:00:24;;;;;;;13.23;6.75;;;8.50;99.90;;;;;;5110475;27;20047;-89
2022/12/19 13:02:56;;;;;;;14.75;7.63;;;8.50;99.90;;;;;;5095386;27;20071;-89